KDTN/DTN METAR and TAF weather

Enter ICAO airport designator
Station Type Date Time Source
KDTN METAR 2018/04/27 00:53 UTC NOAA

KDTN 270053Z 00000KT 10SM CLR 18/10 A2994 RMK AO2 SLP138 T01780100


Station Type Date Time Source
KDTN Decoded METAR 2018/04/27 00:53 UTC NOAA

SHREVEPORT DOWNTOWN AIRPORT, LA, United States (KDTN) 32-32N 093-45W 53M
Apr 26, 2018 - 08:53 PM EDT / 2018.04.27 0053 UTC
Wind: Calm:0
Visibility: 10 mile(s):0
Sky conditions: clear
Temperature: 64.0 F (17.8 C)
Dew Point: 50.0 F (10.0 C)
Relative Humidity: 60%
Pressure (altimeter): 29.94 in. Hg (1013 hPa)
ob: KDTN 270053Z 00000KT 10SM CLR 18/10 A2994 RMK AO2 SLP138 T01780100
cycle: 1

Station Type Date Time Source
KDTN TAF UTC NOAA

Error!


Example: see airport list